sensor_id;sensor_type;location;lat;lon;timestamp;P1;durP1;ratioP1;P2;durP2;ratioP2
22166;SDS011;11249;52.468;13.776;2022-09-12T00:01:34;12.13;;;10.88;;
22166;SDS011;11249;52.468;13.776;2022-09-12T00:04:01;14.55;;;10.45;;
22166;SDS011;11249;52.468;13.776;2022-09-12T00:06:29;12.25;;;10.02;;
22166;SDS011;11249;52.468;13.776;2022-09-12T00:08:58;11.60;;;10.07;;
22166;SDS011;11249;52.468;13.776;2022-09-12T00:11:27;10.20;;;8.80;;
22166;SDS011;11249;52.468;13.776;2022-09-12T00:13:59;11.73;;;10.40;;
22166;SDS011;11249;52.468;13.776;2022-09-12T00:16:27;12.05;;;9.60;;
22166;SDS011;11249;52.468;13.776;2022-09-12T00:18:55;11.73;;;9.63;;
22166;SDS011;11249;52.468;13.776;2022-09-12T00:21:22;10.25;;;9.25;;
22166;SDS011;11249;52.468;13.776;2022-09-12T00:23:49;13.38;;;10.52;;
22166;SDS011;11249;52.468;13.776;2022-09-12T00:26:16;11.90;;;10.13;;
22166;SDS011;11249;52.468;13.776;2022-09-12T00:28:44;12.57;;;10.52;;
22166;SDS011;11249;52.468;13.776;2022-09-12T00:31:13;11.20;;;9.23;;
22166;SDS011;11249;52.468;13.776;2022-09-12T00:33:42;13.20;;;9.32;;
22166;SDS011;11249;52.468;13.776;2022-09-12T00:36:10;14.40;;;9.77;;
22166;SDS011;11249;52.468;13.776;2022-09-12T00:38:40;12.40;;;9.13;;
22166;SDS011;11249;52.468;13.776;2022-09-12T00:41:15;10.27;;;8.93;;
22166;SDS011;11249;52.468;13.776;2022-09-12T00:43:54;13.32;;;10.63;;
22166;SDS011;11249;52.468;13.776;2022-09-12T00:49:13;15.90;;;10.13;;
22166;SDS011;11249;52.468;13.776;2022-09-12T00:51:57;12.35;;;10.30;;
22166;SDS011;11249;52.468;13.776;2022-09-12T00:54:43;12.20;;;10.38;;
22166;SDS011;11249;52.468;13.776;2022-09-12T00:57:14;12.50;;;11.20;;
22166;SDS011;11249;52.468;13.776;2022-09-12T00:59:44;12.70;;;9.23;;
22166;SDS011;11249;52.468;13.776;2022-09-12T01:02:15;13.18;;;10.88;;
22166;SDS011;11249;52.468;13.776;2022-09-12T01:04:43;10.93;;;9.50;;
22166;SDS011;11249;52.468;13.776;2022-09-12T01:07:10;14.10;;;10.13;;
22166;SDS011;11249;52.468;13.776;2022-09-12T01:09:37;11.07;;;9.93;;
22166;SDS011;11249;52.468;13.776;2022-09-12T01:12:05;11.07;;;9.30;;
22166;SDS011;11249;52.468;13.776;2022-09-12T01:14:33;11.48;;;10.27;;
22166;SDS011;11249;52.468;13.776;2022-09-12T01:17:00;13.13;;;10.45;;
22166;SDS011;11249;52.468;13.776;2022-09-12T01:19:48;11.82;;;10.05;;
22166;SDS011;11249;52.468;13.776;2022-09-12T01:30:53;12.93;;;10.27;;
22166;SDS011;11249;52.468;13.776;2022-09-12T01:33:42;16.00;;;10.43;;
22166;SDS011;11249;52.468;13.776;2022-09-12T01:36:26;10.63;;;9.05;;
22166;SDS011;11249;52.468;13.776;2022-09-12T01:44:46;10.15;;;8.40;;
22166;SDS011;11249;52.468;13.776;2022-09-12T01:47:21;11.35;;;9.20;;
22166;SDS011;11249;52.468;13.776;2022-09-12T01:50:09;10.75;;;9.63;;
22166;SDS011;11249;52.468;13.776;2022-09-12T01:52:53;13.43;;;9.90;;
22166;SDS011;11249;52.468;13.776;2022-09-12T01:55:50;12.07;;;8.90;;
22166;SDS011;11249;52.468;13.776;2022-09-12T01:58:23;12.82;;;10.13;;
22166;SDS011;11249;52.468;13.776;2022-09-12T02:01:03;13.13;;;9.60;;
22166;SDS011;11249;52.468;13.776;2022-09-12T02:03:38;8.80;;;7.90;;
22166;SDS011;11249;52.468;13.776;2022-09-12T02:06:14;10.35;;;9.07;;
22166;SDS011;11249;52.468;13.776;2022-09-12T02:08:59;9.60;;;8.52;;
22166;SDS011;11249;52.468;13.776;2022-09-12T02:11:33;9.38;;;8.48;;
22166;SDS011;11249;52.468;13.776;2022-09-12T02:14:06;11.38;;;9.77;;
22166;SDS011;11249;52.468;13.776;2022-09-12T02:16:39;10.05;;;9.05;;
22166;SDS011;11249;52.468;13.776;2022-09-12T02:19:19;9.80;;;8.10;;
22166;SDS011;11249;52.468;13.776;2022-09-12T02:21:53;11.07;;;8.85;;
22166;SDS011;11249;52.468;13.776;2022-09-12T02:24:24;9.05;;;8.18;;
22166;SDS011;11249;52.468;13.776;2022-09-12T02:26:56;8.93;;;8.05;;
22166;SDS011;11249;52.468;13.776;2022-09-12T02:29:28;8.95;;;8.02;;
22166;SDS011;11249;52.468;13.776;2022-09-12T02:31:56;11.05;;;8.50;;
22166;SDS011;11249;52.468;13.776;2022-09-12T02:34:43;9.48;;;8.60;;
22166;SDS011;11249;52.468;13.776;2022-09-12T02:40:05;11.50;;;10.25;;
22166;SDS011;11249;52.468;13.776;2022-09-12T02:42:34;10.93;;;8.07;;
22166;SDS011;11249;52.468;13.776;2022-09-12T02:45:02;10.18;;;8.98;;
22166;SDS011;11249;52.468;13.776;2022-09-12T02:47:34;9.88;;;8.98;;
22166;SDS011;11249;52.468;13.776;2022-09-12T02:50:18;11.50;;;8.45;;
22166;SDS011;11249;52.468;13.776;2022-09-12T02:52:45;10.98;;;9.57;;
22166;SDS011;11249;52.468;13.776;2022-09-12T02:55:12;9.98;;;8.98;;
22166;SDS011;11249;52.468;13.776;2022-09-12T02:57:39;12.23;;;9.27;;
22166;SDS011;11249;52.468;13.776;2022-09-12T03:00:06;10.07;;;9.07;;
22166;SDS011;11249;52.468;13.776;2022-09-12T03:02:39;11.23;;;9.82;;
22166;SDS011;11249;52.468;13.776;2022-09-12T03:05:28;11.50;;;10.30;;
22166;SDS011;11249;52.468;13.776;2022-09-12T03:08:11;10.27;;;8.88;;
22166;SDS011;11249;52.468;13.776;2022-09-12T03:11:13;11.48;;;8.82;;
22166;SDS011;11249;52.468;13.776;2022-09-12T03:13:53;11.80;;;10.60;;
22166;SDS011;11249;52.468;13.776;2022-09-12T03:16:50;10.07;;;9.10;;
22166;SDS011;11249;52.468;13.776;2022-09-12T03:19:32;10.07;;;8.90;;
22166;SDS011;11249;52.468;13.776;2022-09-12T03:22:33;9.55;;;8.45;;
22166;SDS011;11249;52.468;13.776;2022-09-12T03:25:24;14.25;;;9.02;;
22166;SDS011;11249;52.468;13.776;2022-09-12T03:27:59;11.05;;;9.65;;
22166;SDS011;11249;52.468;13.776;2022-09-12T03:30:39;10.50;;;9.40;;
22166;SDS011;11249;52.468;13.776;2022-09-12T03:33:11;9.52;;;8.50;;
22166;SDS011;11249;52.468;13.776;2022-09-12T03:35:40;10.93;;;9.15;;
22166;SDS011;11249;52.468;13.776;2022-09-12T03:38:07;9.55;;;8.52;;
22166;SDS011;11249;52.468;13.776;2022-09-12T03:40:34;13.68;;;9.63;;
22166;SDS011;11249;52.468;13.776;2022-09-12T03:43:03;9.52;;;8.55;;
22166;SDS011;11249;52.468;13.776;2022-09-12T03:45:31;11.68;;;8.77;;
22166;SDS011;11249;52.468;13.776;2022-09-12T03:47:57;9.40;;;8.43;;
22166;SDS011;11249;52.468;13.776;2022-09-12T03:50:24;11.57;;;8.82;;
22166;SDS011;11249;52.468;13.776;2022-09-12T03:52:51;10.40;;;9.25;;
22166;SDS011;11249;52.468;13.776;2022-09-12T03:55:18;8.57;;;7.78;;
22166;SDS011;11249;52.468;13.776;2022-09-12T03:57:45;8.18;;;7.40;;
22166;SDS011;11249;52.468;13.776;2022-09-12T04:00:11;7.63;;;6.78;;
22166;SDS011;11249;52.468;13.776;2022-09-12T04:02:44;9.15;;;7.63;;
22166;SDS011;11249;52.468;13.776;2022-09-12T04:05:11;12.13;;;9.15;;
22166;SDS011;11249;52.468;13.776;2022-09-12T04:07:38;10.55;;;8.38;;
22166;SDS011;11249;52.468;13.776;2022-09-12T04:10:05;9.52;;;8.23;;
22166;SDS011;11249;52.468;13.776;2022-09-12T04:12:32;8.35;;;7.38;;
22166;SDS011;11249;52.468;13.776;2022-09-12T04:15:00;8.13;;;7.18;;
22166;SDS011;11249;52.468;13.776;2022-09-12T04:17:27;8.00;;;7.28;;
22166;SDS011;11249;52.468;13.776;2022-09-12T04:19:54;10.73;;;7.82;;
22166;SDS011;11249;52.468;13.776;2022-09-12T04:22:20;8.13;;;7.32;;
22166;SDS011;11249;52.468;13.776;2022-09-12T04:24:47;8.57;;;7.78;;
22166;SDS011;11249;52.468;13.776;2022-09-12T04:27:13;7.75;;;6.93;;
22166;SDS011;11249;52.468;13.776;2022-09-12T04:29:40;8.27;;;7.28;;
22166;SDS011;11249;52.468;13.776;2022-09-12T04:32:07;9.02;;;7.82;;
22166;SDS011;11249;52.468;13.776;2022-09-12T04:34:33;7.25;;;6.55;;
22166;SDS011;11249;52.468;13.776;2022-09-12T04:37:00;7.95;;;7.22;;
22166;SDS011;11249;52.468;13.776;2022-09-12T04:39:27;7.72;;;6.90;;
22166;SDS011;11249;52.468;13.776;2022-09-12T04:41:54;10.07;;;7.15;;
22166;SDS011;11249;52.468;13.776;2022-09-12T04:44:21;9.30;;;8.25;;
22166;SDS011;11249;52.468;13.776;2022-09-12T04:46:48;10.18;;;9.15;;
22166;SDS011;11249;52.468;13.776;2022-09-12T04:49:15;9.77;;;8.75;;
22166;SDS011;11249;52.468;13.776;2022-09-12T04:51:42;11.65;;;9.13;;
22166;SDS011;11249;52.468;13.776;2022-09-12T04:54:10;11.52;;;9.20;;
22166;SDS011;11249;52.468;13.776;2022-09-12T04:56:38;14.80;;;9.98;;
22166;SDS011;11249;52.468;13.776;2022-09-12T04:59:07;10.95;;;8.98;;
22166;SDS011;11249;52.468;13.776;2022-09-12T05:01:35;10.18;;;8.40;;
22166;SDS011;11249;52.468;13.776;2022-09-12T05:04:02;9.90;;;8.85;;
22166;SDS011;11249;52.468;13.776;2022-09-12T05:06:30;9.38;;;8.57;;
22166;SDS011;11249;52.468;13.776;2022-09-12T05:08:59;10.05;;;8.25;;
22166;SDS011;11249;52.468;13.776;2022-09-12T05:11:28;8.73;;;7.82;;
22166;SDS011;11249;52.468;13.776;2022-09-12T05:14:16;10.20;;;8.52;;
22166;SDS011;11249;52.468;13.776;2022-09-12T05:16:42;11.15;;;8.27;;
22166;SDS011;11249;52.468;13.776;2022-09-12T05:19:14;9.55;;;8.55;;
22166;SDS011;11249;52.468;13.776;2022-09-12T05:21:41;11.38;;;9.32;;
22166;SDS011;11249;52.468;13.776;2022-09-12T05:24:08;14.40;;;12.20;;
22166;SDS011;11249;52.468;13.776;2022-09-12T05:26:36;10.73;;;9.50;;
22166;SDS011;11249;52.468;13.776;2022-09-12T05:29:03;12.85;;;10.60;;
22166;SDS011;11249;52.468;13.776;2022-09-12T05:31:31;13.27;;;10.57;;
22166;SDS011;11249;52.468;13.776;2022-09-12T05:33:58;11.68;;;10.07;;
22166;SDS011;11249;52.468;13.776;2022-09-12T05:36:26;15.05;;;11.82;;
22166;SDS011;11249;52.468;13.776;2022-09-12T05:38:54;12.40;;;11.10;;
22166;SDS011;11249;52.468;13.776;2022-09-12T05:41:22;12.82;;;10.32;;
22166;SDS011;11249;52.468;13.776;2022-09-12T05:43:54;12.70;;;10.32;;
22166;SDS011;11249;52.468;13.776;2022-09-12T05:46:24;14.52;;;9.57;;
22166;SDS011;11249;52.468;13.776;2022-09-12T05:48:52;12.13;;;9.93;;
22166;SDS011;11249;52.468;13.776;2022-09-12T05:51:25;12.10;;;10.75;;
22166;SDS011;11249;52.468;13.776;2022-09-12T05:53:56;11.45;;;9.27;;
22166;SDS011;11249;52.468;13.776;2022-09-12T05:56:26;16.98;;;11.77;;
22166;SDS011;11249;52.468;13.776;2022-09-12T05:58:55;12.85;;;10.68;;
22166;SDS011;11249;52.468;13.776;2022-09-12T06:01:27;14.15;;;11.65;;
22166;SDS011;11249;52.468;13.776;2022-09-12T06:03:56;14.48;;;12.32;;
22166;SDS011;11249;52.468;13.776;2022-09-12T06:06:26;15.15;;;12.98;;
22166;SDS011;11249;52.468;13.776;2022-09-12T06:08:57;15.10;;;13.35;;
22166;SDS011;11249;52.468;13.776;2022-09-12T06:11:26;15.30;;;13.70;;
22166;SDS011;11249;52.468;13.776;2022-09-12T06:13:55;16.05;;;14.35;;
22166;SDS011;11249;52.468;13.776;2022-09-12T06:16:24;16.38;;;13.15;;
22166;SDS011;11249;52.468;13.776;2022-09-12T06:18:54;17.60;;;13.80;;
22166;SDS011;11249;52.468;13.776;2022-09-12T06:21:22;16.30;;;14.43;;
22166;SDS011;11249;52.468;13.776;2022-09-12T06:23:50;17.50;;;13.40;;
22166;SDS011;11249;52.468;13.776;2022-09-12T06:26:19;16.70;;;14.88;;
22166;SDS011;11249;52.468;13.776;2022-09-12T06:28:48;16.55;;;14.23;;
22166;SDS011;11249;52.468;13.776;2022-09-12T06:31:17;20.63;;;15.77;;
22166;SDS011;11249;52.468;13.776;2022-09-12T06:33:46;15.43;;;13.50;;
22166;SDS011;11249;52.468;13.776;2022-09-12T06:36:19;17.77;;;15.27;;
22166;SDS011;11249;52.468;13.776;2022-09-12T06:38:53;17.90;;;14.13;;
22166;SDS011;11249;52.468;13.776;2022-09-12T06:41:31;24.42;;;15.13;;
22166;SDS011;11249;52.468;13.776;2022-09-12T06:43:58;17.63;;;15.35;;
22166;SDS011;11249;52.468;13.776;2022-09-12T06:46:25;19.13;;;14.77;;
22166;SDS011;11249;52.468;13.776;2022-09-12T06:48:56;18.45;;;16.48;;
22166;SDS011;11249;52.468;13.776;2022-09-12T06:51:24;22.85;;;16.77;;
22166;SDS011;11249;52.468;13.776;2022-09-12T06:53:55;19.63;;;17.27;;
22166;SDS011;11249;52.468;13.776;2022-09-12T06:56:23;22.08;;;18.75;;
22166;SDS011;11249;52.468;13.776;2022-09-12T06:58:52;22.10;;;19.58;;
22166;SDS011;11249;52.468;13.776;2022-09-12T07:01:21;23.75;;;18.08;;
22166;SDS011;11249;52.468;13.776;2022-09-12T07:03:51;24.42;;;19.60;;
22166;SDS011;11249;52.468;13.776;2022-09-12T07:06:20;22.63;;;17.92;;
22166;SDS011;11249;52.468;13.776;2022-09-12T07:08:49;22.10;;;17.97;;
22166;SDS011;11249;52.468;13.776;2022-09-12T07:11:17;21.00;;;18.05;;
22166;SDS011;11249;52.468;13.776;2022-09-12T07:13:47;20.70;;;17.13;;
22166;SDS011;11249;52.468;13.776;2022-09-12T07:16:15;25.05;;;17.67;;
22166;SDS011;11249;52.468;13.776;2022-09-12T07:18:49;24.67;;;18.98;;
22166;SDS011;11249;52.468;13.776;2022-09-12T07:21:23;21.08;;;18.17;;
22166;SDS011;11249;52.468;13.776;2022-09-12T07:23:50;27.08;;;18.75;;
22166;SDS011;11249;52.468;13.776;2022-09-12T07:26:20;19.52;;;17.42;;
22166;SDS011;11249;52.468;13.776;2022-09-12T07:28:49;20.40;;;16.75;;
22166;SDS011;11249;52.468;13.776;2022-09-12T07:31:19;22.25;;;16.50;;
22166;SDS011;11249;52.468;13.776;2022-09-12T07:33:47;19.38;;;16.23;;
22166;SDS011;11249;52.468;13.776;2022-09-12T07:36:20;18.48;;;15.65;;
22166;SDS011;11249;52.468;13.776;2022-09-12T07:38:53;20.73;;;15.95;;
22166;SDS011;11249;52.468;13.776;2022-09-12T07:41:26;16.50;;;14.77;;
22166;SDS011;11249;52.468;13.776;2022-09-12T07:43:55;18.50;;;15.43;;
22166;SDS011;11249;52.468;13.776;2022-09-12T07:46:24;19.50;;;15.23;;
22166;SDS011;11249;52.468;13.776;2022-09-12T07:48:52;16.27;;;14.27;;
22166;SDS011;11249;52.468;13.776;2022-09-12T07:51:21;16.67;;;13.63;;
22166;SDS011;11249;52.468;13.776;2022-09-12T07:53:48;18.38;;;13.80;;
22166;SDS011;11249;52.468;13.776;2022-09-12T07:56:16;15.13;;;13.60;;
22166;SDS011;11249;52.468;13.776;2022-09-12T07:58:45;15.98;;;13.73;;
22166;SDS011;11249;52.468;13.776;2022-09-12T08:01:16;14.73;;;13.13;;
22166;SDS011;11249;52.468;13.776;2022-09-12T08:03:45;14.80;;;13.30;;
22166;SDS011;11249;52.468;13.776;2022-09-12T08:06:14;13.23;;;11.82;;
22166;SDS011;11249;52.468;13.776;2022-09-12T08:08:45;15.52;;;12.05;;
22166;SDS011;11249;52.468;13.776;2022-09-12T08:11:14;12.68;;;11.35;;
22166;SDS011;11249;52.468;13.776;2022-09-12T08:13:42;14.50;;;11.67;;
22166;SDS011;11249;52.468;13.776;2022-09-12T08:16:14;12.38;;;10.18;;
22166;SDS011;11249;52.468;13.776;2022-09-12T08:18:43;11.50;;;9.75;;
22166;SDS011;11249;52.468;13.776;2022-09-12T08:21:13;12.20;;;10.63;;
22166;SDS011;11249;52.468;13.776;2022-09-12T08:23:42;10.43;;;9.43;;
22166;SDS011;11249;52.468;13.776;2022-09-12T08:26:09;9.77;;;8.60;;
22166;SDS011;11249;52.468;13.776;2022-09-12T08:28:37;10.45;;;6.47;;
22166;SDS011;11249;52.468;13.776;2022-09-12T08:31:06;7.07;;;5.40;;
22166;SDS011;11249;52.468;13.776;2022-09-12T08:33:35;5.03;;;4.63;;
22166;SDS011;11249;52.468;13.776;2022-09-12T08:36:03;4.28;;;3.88;;
22166;SDS011;11249;52.468;13.776;2022-09-12T08:38:34;5.28;;;3.95;;
22166;SDS011;11249;52.468;13.776;2022-09-12T08:43:40;3.70;;;3.22;;
22166;SDS011;11249;52.468;13.776;2022-09-12T08:46:23;3.60;;;3.30;;
22166;SDS011;11249;52.468;13.776;2022-09-12T08:48:57;3.67;;;3.38;;
22166;SDS011;11249;52.468;13.776;2022-09-12T08:51:26;5.50;;;3.47;;
22166;SDS011;11249;52.468;13.776;2022-09-12T08:53:55;3.60;;;2.78;;
22166;SDS011;11249;52.468;13.776;2022-09-12T08:56:23;4.55;;;3.17;;
22166;SDS011;11249;52.468;13.776;2022-09-12T08:58:56;5.13;;;2.95;;
22166;SDS011;11249;52.468;13.776;2022-09-12T09:01:27;3.63;;;2.85;;
22166;SDS011;11249;52.468;13.776;2022-09-12T09:04:03;3.40;;;2.80;;
22166;SDS011;11249;52.468;13.776;2022-09-12T09:06:54;3.63;;;2.03;;
22166;SDS011;11249;52.468;13.776;2022-09-12T09:12:19;2.50;;;2.30;;
22166;SDS011;11249;52.468;13.776;2022-09-12T09:15:20;3.75;;;2.60;;
22166;SDS011;11249;52.468;13.776;2022-09-12T09:17:59;3.72;;;2.47;;
22166;SDS011;11249;52.468;13.776;2022-09-12T09:20:51;3.10;;;1.90;;
22166;SDS011;11249;52.468;13.776;2022-09-12T09:23:35;4.53;;;1.40;;
22166;SDS011;11249;52.468;13.776;2022-09-12T09:28:49;1.88;;;1.35;;
22166;SDS011;11249;52.468;13.776;2022-09-12T09:31:21;2.55;;;1.77;;
22166;SDS011;11249;52.468;13.776;2022-09-12T09:33:51;3.17;;;1.55;;
22166;SDS011;11249;52.468;13.776;2022-09-12T09:36:21;1.70;;;1.60;;
22166;SDS011;11249;52.468;13.776;2022-09-12T09:42:37;2.08;;;1.73;;
22166;SDS011;11249;52.468;13.776;2022-09-12T09:45:19;2.27;;;1.30;;
22166;SDS011;11249;52.468;13.776;2022-09-12T09:47:56;2.17;;;1.30;;
22166;SDS011;11249;52.468;13.776;2022-09-12T09:50:28;1.37;;;1.27;;
22166;SDS011;11249;52.468;13.776;2022-09-12T09:52:55;2.55;;;1.38;;
22166;SDS011;11249;52.468;13.776;2022-09-12T09:55:27;2.55;;;1.23;;
22166;SDS011;11249;52.468;13.776;2022-09-12T09:58:02;2.85;;;1.10;;
22166;SDS011;11249;52.468;13.776;2022-09-12T10:00:30;2.35;;;1.23;;
22166;SDS011;11249;52.468;13.776;2022-09-12T10:05:49;3.72;;;1.10;;
22166;SDS011;11249;52.468;13.776;2022-09-12T10:08:19;1.75;;;1.10;;
22166;SDS011;11249;52.468;13.776;2022-09-12T10:11:06;1.40;;;1.00;;
22166;SDS011;11249;52.468;13.776;2022-09-12T10:18:54;1.30;;;1.13;;
22166;SDS011;11249;52.468;13.776;2022-09-12T10:21:35;1.92;;;1.20;;
22166;SDS011;11249;52.468;13.776;2022-09-12T10:26:56;3.38;;;1.80;;
22166;SDS011;11249;52.468;13.776;2022-09-12T10:29:38;0.73;;;0.73;;
22166;SDS011;11249;52.468;13.776;2022-09-12T10:32:11;3.60;;;1.05;;
22166;SDS011;11249;52.468;13.776;2022-09-12T10:34:44;1.35;;;0.93;;
22166;SDS011;11249;52.468;13.776;2022-09-12T10:37:22;1.10;;;0.90;;
22166;SDS011;11249;52.468;13.776;2022-09-12T10:39:55;1.20;;;0.75;;
22166;SDS011;11249;52.468;13.776;2022-09-12T10:42:40;0.90;;;0.90;;
22166;SDS011;11249;52.468;13.776;2022-09-12T10:48:29;0.98;;;0.90;;
22166;SDS011;11249;52.468;13.776;2022-09-12T10:51:00;1.33;;;0.90;;
22166;SDS011;11249;52.468;13.776;2022-09-12T10:53:39;1.27;;;0.63;;
22166;SDS011;11249;52.468;13.776;2022-09-12T10:56:08;1.45;;;0.80;;
22166;SDS011;11249;52.468;13.776;2022-09-12T11:12:50;2.65;;;1.10;;
22166;SDS011;11249;52.468;13.776;2022-09-12T11:15:33;2.25;;;0.80;;
22166;SDS011;11249;52.468;13.776;2022-09-12T11:18:22;1.33;;;1.20;;
22166;SDS011;11249;52.468;13.776;2022-09-12T11:20:52;2.20;;;0.75;;
22166;SDS011;11249;52.468;13.776;2022-09-12T11:23:27;1.80;;;1.08;;
22166;SDS011;11249;52.468;13.776;2022-09-12T11:26:33;2.65;;;1.00;;
22166;SDS011;11249;52.468;13.776;2022-09-12T11:29:33;1.40;;;0.77;;
22166;SDS011;11249;52.468;13.776;2022-09-12T11:32:17;0.85;;;0.73;;
22166;SDS011;11249;52.468;13.776;2022-09-12T11:35:05;1.67;;;0.93;;
22166;SDS011;11249;52.468;13.776;2022-09-12T11:40:39;0.98;;;0.82;;
22166;SDS011;11249;52.468;13.776;2022-09-12T11:43:25;1.13;;;0.75;;
22166;SDS011;11249;52.468;13.776;2022-09-12T11:46:49;1.27;;;0.68;;
22166;SDS011;11249;52.468;13.776;2022-09-12T11:48:58;0.80;;;0.63;;
22166;SDS011;11249;52.468;13.776;2022-09-12T11:51:34;2.15;;;0.95;;
22166;SDS011;11249;52.468;13.776;2022-09-12T12:00:04;2.75;;;0.90;;
22166;SDS011;11249;52.468;13.776;2022-09-12T12:08:42;1.02;;;0.80;;
22166;SDS011;11249;52.468;13.776;2022-09-12T12:11:12;1.35;;;0.90;;
22166;SDS011;11249;52.468;13.776;2022-09-12T12:13:55;1.33;;;0.70;;
22166;SDS011;11249;52.468;13.776;2022-09-12T12:18:54;1.63;;;0.80;;
22166;SDS011;11249;52.468;13.776;2022-09-12T12:21:37;2.60;;;1.00;;
22166;SDS011;11249;52.468;13.776;2022-09-12T12:26:39;1.27;;;0.80;;
22166;SDS011;11249;52.468;13.776;2022-09-12T12:29:12;2.50;;;0.88;;
22166;SDS011;11249;52.468;13.776;2022-09-12T12:34:37;1.90;;;0.77;;
22166;SDS011;11249;52.468;13.776;2022-09-12T12:39:57;0.95;;;0.93;;
22166;SDS011;11249;52.468;13.776;2022-09-12T12:52:31;4.10;;;0.75;;
22166;SDS011;11249;52.468;13.776;2022-09-12T12:55:14;2.80;;;1.00;;
22166;SDS011;11249;52.468;13.776;2022-09-12T12:57:51;1.80;;;0.85;;
22166;SDS011;11249;52.468;13.776;2022-09-12T13:00:25;0.80;;;0.80;;
22166;SDS011;11249;52.468;13.776;2022-09-12T13:03:01;1.53;;;1.07;;
22166;SDS011;11249;52.468;13.776;2022-09-12T13:05:46;1.58;;;1.02;;
22166;SDS011;11249;52.468;13.776;2022-09-12T13:10:50;0.68;;;0.60;;
22166;SDS011;11249;52.468;13.776;2022-09-12T13:13:48;3.00;;;0.82;;
22166;SDS011;11249;52.468;13.776;2022-09-12T13:16:34;2.10;;;0.80;;
22166;SDS011;11249;52.468;13.776;2022-09-12T13:19:14;1.40;;;1.10;;
22166;SDS011;11249;52.468;13.776;2022-09-12T13:21:54;1.13;;;0.77;;
22166;SDS011;11249;52.468;13.776;2022-09-12T13:24:22;0.80;;;0.75;;
22166;SDS011;11249;52.468;13.776;2022-09-12T13:26:49;1.00;;;0.95;;
22166;SDS011;11249;52.468;13.776;2022-09-12T13:29:16;1.35;;;1.15;;
22166;SDS011;11249;52.468;13.776;2022-09-12T13:31:46;2.42;;;0.93;;
22166;SDS011;11249;52.468;13.776;2022-09-12T13:34:24;2.08;;;1.02;;
22166;SDS011;11249;52.468;13.776;2022-09-12T13:40:11;1.80;;;0.85;;
22166;SDS011;11249;52.468;13.776;2022-09-12T13:43:04;0.70;;;0.70;;
22166;SDS011;11249;52.468;13.776;2022-09-12T13:45:34;2.00;;;0.73;;
22166;SDS011;11249;52.468;13.776;2022-09-12T13:48:04;7.57;;;4.00;;
22166;SDS011;11249;52.468;13.776;2022-09-12T13:50:39;10.25;;;5.47;;
22166;SDS011;11249;52.468;13.776;2022-09-12T13:53:15;5.95;;;3.47;;
22166;SDS011;11249;52.468;13.776;2022-09-12T13:55:44;5.82;;;3.50;;
22166;SDS011;11249;52.468;13.776;2022-09-12T13:58:29;17.73;;;10.32;;
22166;SDS011;11249;52.468;13.776;2022-09-12T14:01:06;5.35;;;3.50;;
22166;SDS011;11249;52.468;13.776;2022-09-12T14:03:53;3.00;;;1.60;;
22166;SDS011;11249;52.468;13.776;2022-09-12T14:06:50;1.80;;;1.20;;
22166;SDS011;11249;52.468;13.776;2022-09-12T14:11:50;4.32;;;1.33;;
22166;SDS011;11249;52.468;13.776;2022-09-12T14:17:16;4.25;;;2.70;;
22166;SDS011;11249;52.468;13.776;2022-09-12T14:19:49;9.27;;;5.72;;
22166;SDS011;11249;52.468;13.776;2022-09-12T14:22:17;4.97;;;3.00;;
22166;SDS011;11249;52.468;13.776;2022-09-12T14:24:47;18.58;;;8.85;;
22166;SDS011;11249;52.468;13.776;2022-09-12T14:27:21;7.20;;;4.32;;
22166;SDS011;11249;52.468;13.776;2022-09-12T14:29:59;4.57;;;2.40;;
22166;SDS011;11249;52.468;13.776;2022-09-12T14:32:34;5.28;;;3.08;;
22166;SDS011;11249;52.468;13.776;2022-09-12T14:37:37;2.35;;;1.48;;
22166;SDS011;11249;52.468;13.776;2022-09-12T14:40:14;4.00;;;1.55;;
22166;SDS011;11249;52.468;13.776;2022-09-12T14:42:44;3.03;;;1.48;;
22166;SDS011;11249;52.468;13.776;2022-09-12T14:45:23;9.98;;;5.50;;
22166;SDS011;11249;52.468;13.776;2022-09-12T14:47:59;4.57;;;2.08;;
22166;SDS011;11249;52.468;13.776;2022-09-12T14:50:27;10.02;;;4.00;;
22166;SDS011;11249;52.468;13.776;2022-09-12T14:53:09;11.98;;;5.30;;
22166;SDS011;11249;52.468;13.776;2022-09-12T14:55:54;3.65;;;2.35;;
22166;SDS011;11249;52.468;13.776;2022-09-12T14:58:26;4.03;;;1.83;;
22166;SDS011;11249;52.468;13.776;2022-09-12T15:00:57;2.28;;;1.45;;
22166;SDS011;11249;52.468;13.776;2022-09-12T15:06:26;6.18;;;3.85;;
22166;SDS011;11249;52.468;13.776;2022-09-12T15:08:55;7.07;;;3.88;;
22166;SDS011;11249;52.468;13.776;2022-09-12T15:11:25;6.05;;;2.83;;
22166;SDS011;11249;52.468;13.776;2022-09-12T15:13:51;4.35;;;2.65;;
22166;SDS011;11249;52.468;13.776;2022-09-12T15:16:18;8.27;;;3.88;;
22166;SDS011;11249;52.468;13.776;2022-09-12T15:18:45;12.73;;;5.97;;
22166;SDS011;11249;52.468;13.776;2022-09-12T15:21:16;10.75;;;5.55;;
22166;SDS011;11249;52.468;13.776;2022-09-12T15:23:46;6.00;;;2.10;;
22166;SDS011;11249;52.468;13.776;2022-09-12T15:26:15;9.80;;;4.00;;
22166;SDS011;11249;52.468;13.776;2022-09-12T15:28:44;6.70;;;3.38;;
22166;SDS011;11249;52.468;13.776;2022-09-12T15:31:30;3.42;;;1.80;;
22166;SDS011;11249;52.468;13.776;2022-09-12T15:33:58;9.52;;;4.57;;
22166;SDS011;11249;52.468;13.776;2022-09-12T15:36:26;4.68;;;2.75;;
22166;SDS011;11249;52.468;13.776;2022-09-12T15:38:56;3.05;;;1.88;;
22166;SDS011;11249;52.468;13.776;2022-09-12T15:41:33;6.82;;;6.00;;
22166;SDS011;11249;52.468;13.776;2022-09-12T15:44:05;5.13;;;3.70;;
22166;SDS011;11249;52.468;13.776;2022-09-12T15:46:35;5.20;;;3.17;;
22166;SDS011;11249;52.468;13.776;2022-09-12T15:49:02;5.60;;;3.08;;
22166;SDS011;11249;52.468;13.776;2022-09-12T15:51:29;10.48;;;5.18;;
22166;SDS011;11249;52.468;13.776;2022-09-12T15:53:55;22.33;;;12.27;;
22166;SDS011;11249;52.468;13.776;2022-09-12T15:56:22;13.65;;;7.22;;
22166;SDS011;11249;52.468;13.776;2022-09-12T15:58:49;11.77;;;5.18;;
22166;SDS011;11249;52.468;13.776;2022-09-12T16:01:25;6.82;;;3.42;;
22166;SDS011;11249;52.468;13.776;2022-09-12T16:03:53;7.43;;;3.17;;
22166;SDS011;11249;52.468;13.776;2022-09-12T16:06:20;6.22;;;4.35;;
22166;SDS011;11249;52.468;13.776;2022-09-12T16:08:47;4.35;;;2.90;;
22166;SDS011;11249;52.468;13.776;2022-09-12T16:11:21;6.28;;;3.88;;
22166;SDS011;11249;52.468;13.776;2022-09-12T16:13:50;6.07;;;2.00;;
22166;SDS011;11249;52.468;13.776;2022-09-12T16:16:18;3.58;;;1.98;;
22166;SDS011;11249;52.468;13.776;2022-09-12T16:18:45;4.22;;;2.35;;
22166;SDS011;11249;52.468;13.776;2022-09-12T16:21:12;3.00;;;2.17;;
22166;SDS011;11249;52.468;13.776;2022-09-12T16:23:41;3.92;;;1.80;;
22166;SDS011;11249;52.468;13.776;2022-09-12T16:26:08;4.88;;;2.33;;
22166;SDS011;11249;52.468;13.776;2022-09-12T16:28:35;3.28;;;2.10;;
22166;SDS011;11249;52.468;13.776;2022-09-12T16:31:03;3.20;;;2.05;;
22166;SDS011;11249;52.468;13.776;2022-09-12T16:33:31;3.35;;;1.83;;
22166;SDS011;11249;52.468;13.776;2022-09-12T16:36:02;6.85;;;2.03;;
22166;SDS011;11249;52.468;13.776;2022-09-12T16:38:31;4.88;;;2.03;;
22166;SDS011;11249;52.468;13.776;2022-09-12T16:41:02;3.38;;;1.90;;
22166;SDS011;11249;52.468;13.776;2022-09-12T16:43:32;3.85;;;1.70;;
22166;SDS011;11249;52.468;13.776;2022-09-12T16:46:03;3.80;;;1.85;;
22166;SDS011;11249;52.468;13.776;2022-09-12T16:48:30;3.00;;;1.85;;
22166;SDS011;11249;52.468;13.776;2022-09-12T16:50:58;2.47;;;1.60;;